航空気象通報

ウインドサーファーのための航空気象通報による風予報です。

7/30-31の航空気象通報(国内、海外)

2009年07月30日 22時42分10秒 | TAF
羽田空港
TAF AMD RJTT 301125Z 3011/3112 05016KT 9000 FEW006 BKN009 BKN025
TEMPO 3015/3021 4000 -RA BR FEW005 BKN007
BECMG 3021/3024 FEW008 SCT012 BKN025
日本時間31日00-06時:050度から16ノットの風

但し、31日00-06時の間:一時、

那覇空港
TAF ROAH 300837Z 3009/3112 21008KT 9999 FEW015
TEMPO 3009/3010 FEW010 SCT020 FEW025CB
BECMG 3009/3011 04008KT
日本時間30日18時-31日18時:210度から8ノットの風
18-20時:風が変化
20-21時:040度から8ノットの風


マウイのカフルイ空港
PHOG 301141Z 3012/3112 05008KT P6SM SCT050
FM302000 06017G28KT P6SM FEW035 SCT060
FM310700 05010KT P6SM SCT050
ハワイ時間30日02-10時:050度から8ノットの風
10-21時:060度から17ノット、突風28ノット
21時-31日02時:050度から10ノットの風


サイパン空港
PGSN 301130Z 3012/3112 18006KT P6SM VCSH SCT020 BKN070
FM302200 22010G17KT P6SM VCSH SCT018 BKN050
マリアナ時間30日22時-31日08時:180度から6ノットの風
08-22時:220度から10ノット、突風17ノット

ジャンル:
お天気
コメント   この記事についてブログを書く
この記事をはてなブックマークに追加
« 7/29-30の航空気象通報(国内... | トップ | 7/31-8/1の航空気象通報(国内... »
最近の画像もっと見る

コメントを投稿

ブログ作成者から承認されるまでコメントは反映されません。

TAF」カテゴリの最新記事